METAR Data
IDs: Format: Raw Decoded Include TAF

Data at: 0004 UTC 25 Apr 2019

PADQ 242353Z 14007KT 10SM CLR 04/M02 A2983 RMK AO2 SNE2254 SLP101 P0000 60065 T00391017 10039 20000 53004
PADQ 242253Z VRB06KT 9SM -SN FEW034 03/00 A2982 RMK AO2 SNB42 SLP098 P0000 T00280000
PADQ 242153Z VRB03KT 10SM SCT008 SCT011 BKN090 03/00 A2982 RMK AO2 SNE18 SLP098 P0001 T00280000
PADQ 242147Z 32005KT 10SM BKN007 BKN090 02/01 A2982 RMK AO2 SNE18 CIG 006V013 P0001
PADQ 242138Z 34003KT 10SM FEW007 SCT012 BKN020 02/01 A2982 RMK AO2 SNE18 P0001 T00220006
PADQ 242107Z 28003KT 3SM -SN BR OVC018 02/00 A2982 RMK AO2 P0001 T00170000
PADQ 242103Z 24005KT 1 1/2SM -SN BR BKN016 OVC021 01/00 A2982 RMK AO2 P0001 T00110000
PADQ 242053Z 24010KT 1SM -SN BR VV013 01/00 A2982 RMK AO2 SLP097 P0044 60064 T00060000 55004
PADQ 242050Z 25011KT 1SM -SN BR VV012 01/00 A2982 RMK AO2 P0044
PADQ 242017Z 25007KT 1/4SM SN FG VV005 00/00 A2983 RMK AO2 P0023 T00000000
PADQ 241953Z 1/4SM +SN FG VV004 00/00 A2983 RMK AO2 PK WND 05030/1916 SLP101 P0015 T00000000
PADQ 241939Z 12007KT 1/4SM +SN FG OVC006 01/00 A2983 RMK AO2 PK WND 05030/1916 P0008 T00060000
PADQ 241932Z 09014G26KT 1SM -SN BR OVC008 01/00 A2983 RMK AO2 PK WND 05030/1916 P0005 T00110000
PADQ 241911Z 05022G29KT 2 1/2SM -SN BR BKN009 OVC012 02/01 A2983 RMK AO2 PK WND 06029/1911 P0002 T00170011
PADQ 241853Z 05024G31KT 1 3/4SM -SN BR BKN007 OVC012 02/01 A2983 RMK AO2 PK WND 04031/1815 SLP101 P0005 T00170011
PADQ 241841Z 04021KT 2SM -SN BR BKN007 OVC012 02/01 A2982 RMK AO2 PK WND 04031/1815 P0004 T00170011
PADQ 241753Z 04024G31KT 3SM -SN BR BKN007 OVC014 02/01 A2983 RMK AO2 PK WND 04031/1753 SLP101 P0004 60012 T00170006 10028 20006 58005
PADQ 241740Z 04023G30KT 2 1/2SM -SN BR BKN007 OVC012 01/01 A2983 RMK AO2 PK WND 04030/1737 P0004 T00110006
PADQ 241702Z 04018KT 1 1/4SM -SN BR OVC007 01/01 A2984 RMK AO2 P0001 T00110006
PADQ 241653Z 05017KT 3/4SM -SN BR OVC006 01/01 A2985 RMK AO2 PK WND 05032/1555 SLP108 P0007 T00110006
PADQ 241627Z 06021G30KT 1/2SM SN FG BKN008 OVC017 01/00 A2985 RMK AO2 PK WND 05032/1555 P0003 T00110000
PADQ 241623Z 06023G30KT 1SM -SN BR BKN010 OVC018 01/00 A2985 RMK AO2 PK WND 05032/1555 P0003 T00110000
PADQ 241612Z 08023G28KT 2SM -SN BR FEW006 BKN012 OVC018 02/M01 A2985 RMK AO2 PK WND 05032/1555 P0002 T00171006
PADQ 241608Z 05020G26KT 1 1/4SM -SN BR BKN012 OVC018 02/00 A2984 RMK AO2 PK WND 05032/1555 P0002 T00170000
PADQ 241558Z 06023G32KT 3/4SM -SN BR BKN014 OVC022 02/M01 A2984 RMK AO2 PK WND 05032/1555 P0001 T00171006
PADQ 241553Z 05024G30KT 1 3/4SM -SN BR BKN014 OVC022 02/M01 A2984 RMK AO2 PK WND 05033/1531 VIS 3/4V5 SLP106 P0000 T00171006
PADQ 241541Z 04025G30KT 2 1/2SM -SN BR BKN016 OVC023 02/M01 A2984 RMK AO2 PK WND 05033/1531 VIS 1 1/2V3 P0000 T00171006
PADQ 241529Z 04021G29KT 3SM -SN BR BKN018 OVC023 02/M01 A2984 RMK AO2 PK WND 04029/1524 P0000 T00171006
PADQ 241522Z 03022G28KT 1 3/4SM -SN BR OVC018 02/M01 A2984 RMK AO2 PK WND 05028/1521 VIS 1V4 P0000 T00171006
PADQ 241453Z 05020G25KT 3SM -SN BR OVC016 01/M01 A2985 RMK AO2 PK WND 08029/1412 SLP109 P0001 60001 T00111006 56013
PADQ 241446Z 05019KT 3SM -SN BR OVC016 01/00 A2985 RMK AO2 PK WND 08029/1412 P0001 T00110000
PADQ 241435Z AUTO 06020G27KT 1 1/4SM -SN BR OVC014 01/M01 A2985 RMK AO2 PK WND 08029/1412 P0000 T00111006 TSNO
PADQ 241416Z AUTO 06020G29KT 1 3/4SM -SN BKN023 OVC029 01/M02 A2986 RMK AO2 PK WND 08029/1412 P0000 T00111017 TSNO
PADQ 241406Z AUTO 06018G27KT 7SM -SN OVC029 02/M02 A2985 RMK AO2 PK WND 05027/1406 P0000 T00221022 TSNO
PADQ 241353Z AUTO 06022KT 7SM -SN BKN034 OVC042 02/M03 A2986 RMK AO2 PK WND 04026/1345 SNB50 SLP111 P0000 T00221033 TSNO
PADQ 241253Z AUTO 06015KT 10SM SCT036 OVC050 02/M04 A2988 RMK AO2 SLP118 T00221044 TSNO
PADQ 241153Z AUTO 06016KT 10SM BKN038 BKN075 BKN095 02/M05 A2989 RMK AO2 SLP121 T00221050 10022 21039 58012 TSNO
PADQ 241053Z AUTO 08014KT 10SM BKN037 BKN044 02/M03 A2990 RMK AO2 SLP127 T00221033 TSNO
PADQ 240953Z AUTO 29005KT 10SM SCT040 M03/M06 A2992 RMK AO2 SLP131 T10281061 TSNO
PADQ 240853Z AUTO 27004KT 10SM CLR M03/M07 A2992 RMK AO2 SLP133 T10331067 400441033 50003 TSNO
PADQ 240753Z AUTO 27003KT 10SM CLR M02/M07 A2992 RMK AO2 SLP134 T10221067 TSNO
PADQ 240653Z AUTO 29007KT 10SM FEW048 M02/M07 A2992 RMK AO2 SLP131 T10171072 TSNO
PADQ 240553Z 29006KT 10SM CLR M01/M07 A2991 RMK AO2 SLP130 T10061072 10044 21006 53005
PADQ 240453Z 02005KT 10SM CLR 02/M07 A2990 RMK AO2 SLP126 T00171072
PADQ 240353Z 04009KT 10SM CLR 03/M08 A2990 RMK AO2 SLP127 T00281078
PADQ 240253Z 06008KT 10SM CLR 03/M08 A2990 RMK AO2 SLP125 T00331078 53001
PADQ 240153Z VRB05KT 10SM BKN070 04/M12 A2989 RMK AO2 SLP123 T00441117
PADQ 240053Z 28009KT 10SM BKN070 04/M12 A2989 RMK AO2 SLP123 T00441122
PADQ 232353Z 24006KT 10SM OVC060 03/M11 A2989 RMK AO2 SLP124 T00281111 10039 20000 51007
PADQ 232253Z 29007KT 10SM OVC060 02/M11 A2989 RMK AO2 SLP122 T00221106
PADQ 232153Z VRB03G16KT 10SM SCT055 02/M11 A2988 RMK AO2 SLP120 T00171111
PADQ 232053Z 23008KT 10SM OVC055 02/M09 A2987 RMK AO2 SLP116 T00171089 51016
PADQ 231953Z VRB03KT 10SM SCT047 BKN055 02/M09 A2986 RMK AO2 SLP112 T00171089
PADQ 231853Z 25007KT 220V290 10SM OVC050 01/M10 A2984 RMK AO2 SLP106 T00111100
PADQ 231753Z 28007KT 10SM BKN050 01/M12 A2983 RMK AO2 SLP100 60000 T00061117 10006 21033 51018
PADQ 231653Z 22007KT 10SM BKN055 M01/M09 A2981 RMK AO2 SLP095 T10061089
PADQ 231553Z 23003KT 10SM BKN050 OVC055 M01/M10 A2979 RMK AO2 SLP089 T10111100
PADQ 231453Z 19004KT 10SM BKN049 M02/M11 A2977 RMK AO2 SLP082 60000 T10221106 51017
PADQ 231353Z AUTO 21004KT 10SM FEW027 SCT046 M03/M09 A2976 RMK AO2 SNB05E19 SLP079 P0000 T10281089 TSNO
PADQ 231253Z AUTO 23004KT 9SM BKN031 OVC041 M03/M08 A2974 RMK AO2 SNB35E53 SLP073 P0000 T10281078 TSNO